Terminal Aerodrome Forecast
Issued by NWS

Home | Current Version | Previous Version | Text Only | Print | Product List | Glossary On
Versions: 1 2 3 4 5 6 7 8 9 10 11 12 13
000
FTUS42 KFFC 301139
TAFRYY
TAF
KRYY 301139Z 3012/3112 00000KT P6SM SKC
     FM301500 32005KT P6SM FEW040
     FM301800 32008KT P6SM SCT060
     FM310100 34003KT P6SM FEW250
     FM310500 00000KT P6SM FEW250=

USA.gov is the U.S. government's official web portal to all federal, state and local government web resources and services.